Aérodrome :
LOGIN :

S'inscrire | Disclaimer

   EN    FR    IT 

 










Légende :    VFR   VFR Marginal   IFR   IFR Intensif   IFR Très Intensif
Visi : 
Plafond : 
>= 8 km
>= 3000ft
5 à 8 km
1000 à 3000 ft
1500m à 5 km
500 à 1000 ft
800 à 1500m
200 à 500 ft
< 800m
< 200 ft
Symboles :   Orages  Brouillard  Fortes neiges  Fortes précipitations  Vent > 20 kt
SIGMETs :   Divers  Orages  Givrage  Turbulence  Onde Orograph.  Cendres Volcan.







- Altitude de l'aérodrome : 468 ft
- Code IATA : BQT


UMBB - Brest

DERNIER METAR :
  • 210830Z 10007G10MPS 8000 OVC026CB 19/15 Q1005 R11/290050 NOSIG

METARs EXPIRÉS :
  • 210800Z 09007G10MPS 8000 OVC024CB 19/15 Q1005 R11/290050 NOSIG
  • 210730Z 10007G10MPS 8000 OVC021CB 19/15 Q1005 R11/290050 NOSIG
  • 210700Z 10006G09MPS 8000 OVC017CB 19/15 Q1005 R11/290050 NOSIG
  • 210630Z 10006G09MPS 8000 OVC016CB 19/15 Q1005 R11/290050 NOSIG
  • 210600Z 10007G10MPS 8000 SCT017 19/15 Q1006 R11/290050 NOSIG

TAF TAF UMBB
Valide du 21 à 09h jusqu'au 21 à 18h UTC


210805Z 2109/2118 11005G10MPS 6000 BKN010 BKN015CB
TEMPO 2111/2117 14009G14MPS 2100 -TSRA BR BKN007
Pas de NOTAMs connus pour ce terrain.
1 SIGMET publié pour la FIR Minsk (UMMV) :
 
Orages noyés dans la masse
UMMV SIGMET 4 VALID 210700/210900 UMMS
UMMV MINSK FIR EMBD TS FCST W OF E029 TOP FL330 MOV NW 30KMH NC=



MET'MAP, la Météo Aéronautique d'un coup d'oeil ! - Copyright ORBIFLY Décembre 2007 - Disclaimer

ORBIFLY MET'MAP TEAM :

Programmation & Développement : Alexandra Zaïnal
Conception & Développement : Baudouin d'Aumeries
Co-Programmation & Développement : Marc-Olivier Méhu
Soutien technique & logistique : Manuel Goepfert

Contact : metmap@orbifly.com




SOURCES & CREDITS :

   NOAA